createdAt,value
2019-02-09T00:02:09.459Z,11.70
2019-02-09T00:04:40.129Z,14.03
2019-02-09T00:07:10.892Z,12.10
2019-02-09T00:09:41.159Z,12.47
2019-02-09T00:12:11.648Z,14.37
2019-02-09T00:14:42.241Z,13.17
2019-02-09T00:17:12.518Z,17.07
2019-02-09T00:19:43.021Z,19.43
2019-02-09T00:22:13.707Z,9.60
2019-02-09T00:24:44.065Z,11.17
2019-02-09T00:27:14.359Z,10.00
2019-02-09T00:29:46.600Z,8.73
2019-02-09T00:32:17.238Z,7.10
2019-02-09T00:34:49.079Z,13.40
2019-02-09T00:37:20.540Z,15.00
2019-02-09T00:39:50.866Z,16.20
2019-02-09T00:42:21.644Z,11.83
2019-02-09T00:44:51.976Z,14.07
2019-02-09T00:47:22.239Z,14.60
2019-02-09T00:49:53.089Z,13.53
2019-02-09T00:52:23.411Z,15.47
2019-02-09T00:54:53.825Z,14.40
2019-02-09T00:57:24.931Z,15.23
2019-02-09T00:59:55.697Z,14.10
2019-02-09T01:02:25.962Z,11.13
2019-02-09T01:04:56.924Z,14.67
2019-02-09T01:07:27.314Z,10.63
2019-02-09T01:09:58.747Z,20.40
2019-02-09T01:12:29.179Z,16.00
2019-02-09T01:14:59.601Z,18.70
2019-02-09T01:17:30.307Z,19.83
2019-02-09T01:20:00.903Z,17.23
2019-02-09T01:22:31.179Z,16.40
2019-02-09T01:25:01.586Z,15.53
2019-02-09T01:27:32.109Z,19.47
2019-02-09T01:30:03.024Z,14.70
2019-02-09T01:32:33.478Z,13.83
2019-02-09T01:35:04.742Z,15.87
2019-02-09T01:37:35.033Z,16.77
2019-02-09T01:40:07.514Z,15.83
2019-02-09T01:42:37.902Z,15.70
2019-02-09T01:45:10.335Z,14.47
2019-02-09T01:47:40.967Z,11.63
2019-02-09T01:50:12.875Z,12.70
2019-02-09T01:52:43.185Z,15.13
2019-02-09T01:55:14.220Z,16.97
2019-02-09T01:57:44.581Z,16.47
2019-02-09T02:00:17.861Z,16.40
2019-02-09T02:02:49.362Z,18.70
2019-02-09T02:05:22.415Z,16.87
2019-02-09T02:07:53.175Z,14.03
2019-02-09T02:10:26.994Z,14.53
2019-02-09T02:12:57.628Z,16.43
2019-02-09T02:15:28.985Z,16.27
2019-02-09T02:17:59.535Z,14.60
2019-02-09T02:20:30.703Z,13.03
2019-02-09T02:23:01.081Z,13.07
2019-02-09T02:25:31.375Z,13.87
2019-02-09T02:28:01.653Z,12.97
2019-02-09T02:30:34.061Z,15.93
2019-02-09T02:33:05.018Z,13.47
2019-02-09T02:35:35.578Z,15.27
2019-02-09T02:38:06.813Z,14.10
2019-02-09T02:40:37.832Z,13.67
2019-02-09T02:43:08.497Z,12.80
2019-02-09T02:45:38.875Z,12.87
2019-02-09T02:48:09.302Z,14.57
2019-02-09T02:50:39.919Z,14.00
2019-02-09T02:53:10.365Z,14.83
2019-02-09T02:55:40.690Z,13.70
2019-02-09T02:58:11.428Z,17.37
2019-02-09T03:00:42.129Z,18.97
2019-02-09T03:03:12.509Z,17.90
2019-02-09T03:05:43.207Z,12.90
2019-02-09T03:08:14.098Z,13.57
2019-02-09T03:10:44.419Z,14.17
2019-02-09T03:13:15.006Z,13.17
2019-02-09T03:15:45.351Z,14.77
2019-02-09T03:18:16.116Z,15.13
2019-02-09T03:20:46.582Z,12.53
2019-02-09T03:23:16.867Z,15.33
2019-02-09T03:25:47.651Z,16.33
2019-02-09T03:28:18.536Z,14.67
2019-02-09T03:30:49.361Z,16.63
2019-02-09T03:33:19.930Z,14.57
2019-02-09T03:35:50.659Z,15.40
2019-02-09T03:38:20.983Z,14.03
2019-02-09T03:40:51.349Z,14.40
2019-02-09T03:43:21.955Z,13.10
2019-02-09T03:45:52.282Z,13.37
2019-02-09T03:48:22.607Z,13.60
2019-02-09T03:50:53.207Z,15.33
2019-02-09T03:53:23.766Z,14.13
2019-02-09T03:55:54.048Z,15.63
2019-02-09T03:58:24.735Z,13.50
2019-02-09T04:00:56.003Z,27.93
2019-02-09T04:03:26.305Z,17.47
2019-02-09T04:05:57.002Z,22.93
2019-02-09T04:08:27.676Z,22.57
2019-02-09T04:10:57.954Z,21.50
2019-02-09T04:13:28.532Z,19.33
2019-02-09T04:15:59.148Z,14.90
2019-02-09T04:18:29.640Z,11.97
2019-02-09T04:21:00.592Z,13.60
2019-02-09T04:23:31.098Z,12.93
2019-02-09T04:26:01.861Z,19.17
2019-02-09T04:28:32.767Z,14.27
2019-02-09T04:31:05.859Z,17.37
2019-02-09T04:33:35.291Z,19.77
2019-02-09T04:36:06.135Z,18.70
2019-02-09T04:38:36.726Z,15.30
2019-02-09T04:41:07.011Z,13.83
2019-02-09T04:43:37.651Z,18.00
2019-02-09T04:46:08.912Z,15.60
2019-02-09T04:48:39.168Z,16.43
2019-02-09T04:51:09.915Z,15.20
2019-02-09T04:53:40.374Z,16.83
2019-02-09T04:56:10.996Z,16.77
2019-02-09T04:58:41.421Z,20.47
2019-02-09T05:01:14.082Z,19.60
2019-02-09T05:03:44.127Z,17.13
2019-02-09T05:06:14.445Z,16.80
2019-02-09T05:08:44.757Z,18.87
2019-02-09T05:11:15.410Z,18.20
2019-02-09T05:13:46.048Z,20.17
2019-02-09T05:16:16.307Z,22.73
2019-02-09T05:18:47.185Z,17.97
2019-02-09T05:21:18.097Z,14.63
2019-02-09T05:23:48.597Z,15.33
2019-02-09T05:26:18.832Z,18.17
2019-02-09T05:28:49.169Z,15.63
2019-02-09T05:31:23.212Z,20.23
2019-02-09T05:33:52.289Z,16.33
2019-02-09T05:36:22.557Z,17.33
2019-02-09T05:38:53.359Z,19.97
2019-02-09T05:41:23.742Z,17.27
2019-02-09T05:43:54.039Z,16.40
2019-02-09T05:46:24.420Z,22.43
2019-02-09T05:48:55.047Z,17.33
2019-02-09T05:51:25.488Z,19.60
2019-02-09T05:53:55.983Z,19.63
2019-02-09T05:56:26.269Z,21.53
2019-02-09T05:58:56.909Z,28.30
2019-02-09T06:01:32.455Z,18.33
2019-02-09T06:03:59.737Z,23.17
2019-02-09T06:06:30.787Z,28.93
2019-02-09T06:09:01.479Z,25.27
2019-02-09T06:11:31.983Z,28.07
2019-02-09T06:14:02.534Z,29.33
2019-02-09T06:16:33.119Z,24.10
2019-02-09T06:19:03.430Z,20.43
2019-02-09T06:21:33.895Z,19.63
2019-02-09T06:24:04.863Z,26.40
2019-02-09T06:26:35.451Z,22.43
2019-02-09T06:29:06.106Z,22.17
2019-02-09T06:31:40.807Z,22.03
2019-02-09T06:34:09.574Z,27.50
2019-02-09T06:36:40.165Z,27.17
2019-02-09T06:39:10.487Z,19.23
2019-02-09T06:41:40.770Z,36.40
2019-02-09T06:44:11.189Z,26.10
2019-02-09T06:46:42.572Z,26.40
2019-02-09T06:49:13.004Z,26.17
2019-02-09T06:51:43.864Z,27.53
2019-02-09T06:54:14.391Z,28.20
2019-02-09T06:56:44.698Z,35.47
2019-02-09T06:59:15.529Z,37.17
2019-02-09T07:01:48.678Z,32.53
2019-02-09T07:04:19.370Z,31.53
2019-02-09T07:06:49.747Z,34.50
2019-02-09T07:09:20.302Z,36.30
2019-02-09T07:11:50.963Z,53.63
2019-02-09T07:14:21.359Z,40.50
2019-02-09T07:16:51.664Z,44.17
2019-02-09T07:19:22.356Z,41.37
2019-02-09T07:21:53.151Z,44.10
2019-02-09T07:24:23.524Z,43.67
2019-02-09T07:26:54.248Z,24.77
2019-02-09T07:29:25.002Z,16.13
2019-02-09T07:31:56.522Z,11.13
2019-02-09T07:34:27.053Z,22.33
2019-02-09T07:36:57.370Z,24.10
2019-02-09T07:39:27.753Z,21.17
2019-02-09T07:41:58.077Z,11.33
2019-02-09T07:44:28.396Z,12.80
2019-02-09T07:46:59.095Z,13.43
2019-02-09T07:49:29.834Z,14.80
2019-02-09T07:52:00.324Z,10.87
2019-02-09T07:54:30.988Z,10.87
2019-02-09T07:57:01.628Z,11.23
2019-02-09T07:59:31.920Z,12.17
2019-02-09T08:02:04.517Z,12.37
2019-02-09T08:04:34.955Z,14.03
2019-02-09T08:07:05.489Z,11.77
2019-02-09T08:09:35.765Z,11.03
2019-02-09T08:12:07.571Z,11.63
2019-02-09T08:14:37.975Z,10.30
2019-02-09T08:17:08.324Z,8.00
2019-02-09T08:19:38.949Z,10.67
2019-02-09T08:22:09.655Z,10.70
2019-02-09T08:24:39.946Z,9.67
2019-02-09T08:27:10.544Z,10.87
2019-02-09T08:29:41.214Z,13.97
2019-02-09T08:32:13.035Z,9.30
2019-02-09T08:34:43.515Z,9.97
2019-02-09T08:37:13.846Z,12.17
2019-02-09T08:39:44.520Z,10.37
2019-02-09T08:42:15.941Z,11.47
2019-02-09T08:44:46.364Z,10.40
2019-02-09T08:47:17.089Z,11.20
2019-02-09T08:49:47.862Z,13.73
2019-02-09T08:52:18.262Z,14.67
2019-02-09T08:54:48.936Z,15.33
2019-02-09T08:57:19.571Z,16.70
2019-02-09T08:59:50.058Z,13.87
2019-02-09T09:02:20.933Z,10.50
2019-02-09T09:04:51.321Z,16.90
2019-02-09T09:07:21.625Z,11.83
2019-02-09T09:09:52.309Z,11.40
2019-02-09T09:12:22.594Z,13.53
2019-02-09T09:14:53.325Z,10.00
2019-02-09T09:17:24.008Z,9.33
2019-02-09T09:19:54.274Z,10.63
2019-02-09T09:22:24.862Z,10.10
2019-02-09T09:24:55.607Z,16.00
2019-02-09T09:27:26.264Z,11.20
2019-02-09T09:29:56.645Z,14.80
2019-02-09T09:32:28.824Z,12.97
2019-02-09T09:34:59.227Z,11.17
2019-02-09T09:37:29.758Z,19.73
2019-02-09T09:40:00.401Z,14.10
2019-02-09T09:42:30.856Z,14.83
2019-02-09T09:45:01.569Z,14.00
2019-02-09T09:47:31.885Z,21.50
2019-02-09T09:50:02.187Z,31.40
2019-02-09T09:52:33.139Z,28.33
2019-02-09T09:55:03.437Z,23.03
2019-02-09T09:57:33.726Z,24.43
2019-02-09T10:00:04.690Z,26.37
2019-02-09T10:02:36.653Z,17.80
2019-02-09T10:05:08.387Z,21.43
2019-02-09T10:07:39.247Z,19.57
2019-02-09T10:10:12.291Z,17.27
2019-02-09T10:12:42.680Z,16.23
2019-02-09T10:15:15.148Z,20.87
2019-02-09T10:17:45.434Z,22.07
2019-02-09T10:20:18.572Z,16.97
2019-02-09T10:22:49.294Z,17.57
2019-02-09T10:25:20.015Z,17.07
2019-02-09T10:27:51.180Z,16.23
2019-02-09T10:30:23.576Z,17.97
2019-02-09T10:32:53.994Z,22.87
2019-02-09T10:35:24.924Z,21.57
2019-02-09T10:37:55.779Z,25.37
2019-02-09T10:40:28.294Z,38.30
2019-02-09T10:42:59.302Z,43.03
2019-02-09T10:45:30.538Z,27.90
2019-02-09T10:48:01.583Z,33.23
2019-02-09T10:50:41.342Z,22.27
2019-02-09T10:53:11.869Z,35.73
2019-02-09T10:55:42.806Z,27.47
2019-02-09T10:58:13.424Z,38.30
2019-02-09T11:00:52.665Z,30.43
2019-02-09T11:03:23.433Z,28.40
2019-02-09T11:05:54.269Z,26.47
2019-02-09T11:08:24.858Z,25.10
2019-02-09T11:10:55.164Z,24.80
2019-02-09T11:13:25.783Z,39.03
2019-02-09T11:15:56.110Z,32.97
2019-02-09T11:18:26.540Z,29.73
2019-02-09T11:20:56.871Z,20.77
2019-02-09T11:23:27.719Z,24.90
2019-02-09T11:25:58.433Z,26.13
2019-02-09T11:28:28.824Z,28.83
2019-02-09T11:30:59.125Z,24.93
2019-02-09T11:33:29.987Z,30.63
2019-02-09T11:36:00.275Z,35.80
2019-02-09T11:38:30.605Z,38.17
2019-02-09T11:41:01.267Z,34.17
2019-02-09T11:43:31.905Z,28.77
2019-02-09T11:46:02.188Z,26.37
2019-02-09T11:48:32.811Z,32.30
2019-02-09T11:51:03.125Z,33.73
2019-02-09T11:53:33.733Z,35.10
2019-02-09T11:56:04.235Z,34.57
2019-02-09T11:58:34.567Z,26.47
2019-02-09T12:01:06.419Z,24.80
2019-02-09T12:03:37.674Z,26.27
2019-02-09T12:06:08.321Z,32.23
2019-02-09T12:08:39.315Z,28.30
2019-02-09T12:11:10.066Z,29.93
2019-02-09T12:13:40.404Z,28.40
2019-02-09T12:16:11.029Z,33.73
2019-02-09T12:18:41.598Z,32.10
2019-02-09T12:21:11.900Z,31.57
2019-02-09T12:23:42.688Z,31.77
2019-02-09T12:26:13.064Z,24.53
2019-02-09T12:28:43.550Z,29.00
2019-02-09T12:31:13.853Z,25.73
2019-02-09T12:33:44.389Z,34.53
2019-02-09T12:36:14.726Z,28.77
2019-02-09T12:38:45.027Z,25.13
2019-02-09T12:41:15.726Z,28.43
2019-02-09T12:43:46.246Z,24.77
2019-02-09T12:46:16.567Z,30.03
2019-02-09T12:48:47.266Z,34.40
2019-02-09T12:51:17.940Z,27.13
2019-02-09T12:53:48.325Z,28.10
2019-02-09T12:56:19.758Z,31.07
2019-02-09T12:58:50.066Z,30.40
2019-02-09T13:01:20.867Z,28.77
2019-02-09T13:03:51.321Z,29.40
2019-02-09T13:06:21.657Z,31.03
2019-02-09T13:08:52.423Z,27.67
2019-02-09T13:11:23.246Z,37.17
2019-02-09T13:13:53.527Z,39.50
2019-02-09T13:16:24.357Z,41.30
2019-02-09T13:18:55.060Z,26.90
2019-02-09T13:21:25.655Z,27.17
2019-02-09T13:23:56.128Z,35.23
2019-02-09T13:26:26.823Z,47.73
2019-02-09T13:28:57.525Z,33.07
2019-02-09T13:31:28.175Z,28.93
2019-02-09T13:33:58.557Z,31.43
2019-02-09T13:36:29.231Z,34.10
2019-02-09T13:38:59.999Z,27.50
2019-02-09T13:41:30.678Z,25.20
2019-02-09T13:44:01.249Z,30.60
2019-02-09T13:46:31.951Z,27.80
2019-02-09T13:49:02.342Z,95.67
2019-02-09T13:51:32.731Z,53.43
2019-02-09T13:54:03.876Z,33.50
2019-02-09T13:56:34.156Z,44.03
2019-02-09T13:59:05.397Z,39.53
2019-02-09T14:01:35.759Z,40.67
2019-02-09T14:04:06.342Z,40.07
2019-02-09T14:06:36.900Z,38.93
2019-02-09T14:09:08.743Z,37.07
2019-02-09T14:11:40.136Z,33.03
2019-02-09T14:14:10.684Z,36.97
2019-02-09T14:16:41.091Z,35.90
2019-02-09T14:19:11.670Z,50.47
2019-02-09T14:21:42.267Z,37.07
2019-02-09T14:24:12.935Z,33.10
2019-02-09T14:26:43.329Z,32.40
2019-02-09T14:29:14.214Z,31.90
2019-02-09T14:31:44.525Z,38.67
2019-02-09T14:34:15.347Z,38.87
2019-02-09T14:36:45.653Z,39.80
2019-02-09T14:39:15.991Z,32.70
2019-02-09T14:41:46.537Z,35.17
2019-02-09T14:44:17.059Z,40.07
2019-02-09T14:46:47.379Z,32.17
2019-02-09T14:49:18.129Z,39.47
2019-02-09T14:51:48.756Z,37.73
2019-02-09T14:54:19.179Z,39.23
2019-02-09T14:56:49.709Z,49.23
2019-02-09T14:59:20.395Z,38.50
2019-02-09T15:01:50.806Z,35.33
2019-02-09T15:04:21.389Z,52.33
2019-02-09T15:06:52.471Z,53.97
2019-02-09T15:09:24.356Z,45.00
2019-02-09T15:11:55.131Z,52.73
2019-02-09T15:14:25.548Z,47.47
2019-02-09T15:16:56.991Z,48.90
2019-02-09T15:19:36.430Z,53.33
2019-02-09T15:22:07.399Z,35.07
2019-02-09T15:24:37.933Z,38.87
2019-02-09T15:27:08.523Z,41.87
2019-02-09T15:29:39.035Z,43.40
2019-02-09T15:32:09.325Z,38.47
2019-02-09T15:34:39.889Z,48.53
2019-02-09T15:37:10.534Z,55.67
2019-02-09T15:39:41.204Z,47.90
2019-02-09T15:42:11.490Z,47.17
2019-02-09T15:44:41.977Z,49.30
2019-02-09T15:47:12.662Z,46.23
2019-02-09T15:49:42.996Z,47.03
2019-02-09T15:52:13.433Z,54.87
2019-02-09T15:54:44.099Z,64.60
2019-02-09T15:57:14.381Z,56.03
2019-02-09T15:59:45.023Z,70.20
2019-02-09T16:02:15.741Z,75.90
2019-02-09T16:04:46.091Z,84.63
2019-02-09T16:07:16.733Z,91.43
2019-02-09T16:09:47.045Z,100.67
2019-02-09T16:12:17.330Z,114.20
2019-02-09T16:14:48.154Z,105.30
2019-02-09T16:17:18.506Z,117.83
2019-02-09T16:19:48.923Z,101.80
2019-02-09T16:22:19.587Z,122.90
2019-02-09T16:24:50.481Z,103.33
2019-02-09T16:27:20.762Z,94.60
2019-02-09T16:29:51.571Z,98.73
2019-02-09T16:32:22.203Z,96.30
2019-02-09T16:34:52.634Z,98.27
2019-02-09T16:37:23.381Z,90.37
2019-02-09T16:39:53.979Z,95.53
2019-02-09T16:42:24.396Z,103.23
2019-02-09T16:44:54.825Z,91.17
2019-02-09T16:47:25.497Z,91.93
2019-02-09T16:49:56.153Z,97.60
2019-02-09T16:52:26.527Z,106.73
2019-02-09T16:54:57.176Z,89.30
2019-02-09T16:57:27.488Z,86.10
2019-02-09T16:59:57.849Z,74.20
2019-02-09T17:02:28.513Z,86.23
2019-02-09T17:04:59.266Z,83.30
2019-02-09T17:07:29.537Z,71.13
2019-02-09T17:10:00.463Z,70.03
2019-02-09T17:12:30.751Z,87.90
2019-02-09T17:15:01.551Z,92.80
2019-02-09T17:17:32.017Z,95.20
2019-02-09T17:20:02.545Z,85.77
2019-02-09T17:22:33.309Z,92.57
2019-02-09T17:25:03.859Z,95.97
2019-02-09T17:27:34.144Z,73.87
2019-02-09T17:30:06.777Z,75.17
2019-02-09T17:32:37.358Z,71.67
2019-02-09T17:35:08.474Z,88.53
2019-02-09T17:37:39.255Z,91.13
2019-02-09T17:40:12.146Z,75.93
2019-02-09T17:42:42.563Z,88.60
2019-02-09T17:45:16.359Z,101.90
2019-02-09T17:47:47.819Z,83.00
2019-02-09T17:50:18.496Z,86.23
2019-02-09T17:52:48.878Z,72.87
2019-02-09T17:55:19.766Z,80.43
2019-02-09T17:57:50.457Z,80.77
2019-02-09T18:00:26.925Z,80.00
2019-02-09T18:02:57.237Z,72.43
2019-02-09T18:05:27.617Z,70.40
2019-02-09T18:07:58.418Z,75.80
2019-02-09T18:10:28.752Z,63.87
2019-02-09T18:12:59.040Z,64.03
2019-02-09T18:15:29.499Z,68.70
2019-02-09T18:18:00.128Z,71.83
2019-02-09T18:20:30.667Z,71.60
2019-02-09T18:23:00.944Z,62.00
2019-02-09T18:25:31.309Z,84.03
2019-02-09T18:28:01.838Z,95.60
2019-02-09T18:30:32.367Z,81.10
2019-02-09T18:33:02.655Z,95.90
2019-02-09T18:35:33.627Z,62.20
2019-02-09T18:38:04.096Z,58.60
2019-02-09T18:40:34.448Z,55.93
2019-02-09T18:43:05.334Z,39.07
2019-02-09T18:45:35.814Z,40.07
2019-02-09T18:48:06.886Z,30.23
2019-02-09T18:50:37.257Z,32.90
2019-02-09T18:53:07.647Z,25.97
2019-02-09T18:55:38.426Z,24.63
2019-02-09T18:58:08.766Z,28.77
2019-02-09T19:00:39.364Z,24.90
2019-02-09T19:03:10.466Z,39.63
2019-02-09T19:05:41.034Z,35.67
2019-02-09T19:08:11.528Z,30.37
2019-02-09T19:10:42.205Z,24.07
2019-02-09T19:13:12.802Z,28.37
2019-02-09T19:15:43.209Z,37.23
2019-02-09T19:18:13.578Z,27.53
2019-02-09T19:20:47.104Z,37.90
2019-02-09T19:23:17.902Z,40.67
2019-02-09T19:25:48.870Z,38.93
2019-02-09T19:28:19.198Z,41.30
2019-02-09T19:30:49.827Z,41.23
2019-02-09T19:33:20.410Z,44.67
2019-02-09T19:35:51.039Z,56.30
2019-02-09T19:38:21.693Z,52.30
2019-02-09T19:40:52.368Z,74.67
2019-02-09T19:43:22.681Z,112.87
2019-02-09T19:45:53.128Z,80.97
2019-02-09T19:48:23.821Z,111.57
2019-02-09T19:50:54.143Z,98.60
2019-02-09T19:53:24.875Z,71.40
2019-02-09T19:55:55.266Z,69.20
2019-02-09T19:58:26.014Z,75.30
2019-02-09T20:00:56.902Z,64.33
2019-02-09T20:03:27.212Z,48.47
2019-02-09T20:05:57.761Z,53.60
2019-02-09T20:08:28.495Z,51.77
2019-02-09T20:10:58.821Z,54.73
2019-02-09T20:13:29.120Z,75.67
2019-02-09T20:16:00.168Z,54.50
2019-02-09T20:18:30.442Z,60.33
2019-02-09T20:21:00.790Z,63.57
2019-02-09T20:23:31.520Z,60.77
2019-02-09T20:26:02.143Z,67.37
2019-02-09T20:28:32.723Z,64.70
2019-02-09T20:31:04.234Z,74.20
2019-02-09T20:33:34.531Z,73.90
2019-02-09T20:36:05.676Z,77.87
2019-02-09T20:38:35.962Z,70.27
2019-02-09T20:41:07.951Z,100.63
2019-02-09T20:43:39.869Z,166.60
2019-02-09T20:46:10.287Z,137.13
2019-02-09T20:48:40.554Z,134.17
2019-02-09T20:51:11.040Z,125.23
2019-02-09T20:53:41.779Z,110.27
2019-02-09T20:56:12.175Z,158.93
2019-02-09T20:58:43.040Z,157.03
2019-02-09T21:01:13.706Z,155.47
2019-02-09T21:03:44.043Z,160.87
2019-02-09T21:06:14.439Z,140.90
2019-02-09T21:08:45.117Z,141.73
2019-02-09T21:11:15.427Z,153.10
2019-02-09T21:13:45.754Z,119.93
2019-02-09T21:16:16.367Z,116.50
2019-02-09T21:18:46.965Z,127.97
2019-02-09T21:21:17.252Z,174.43
2019-02-09T21:23:47.996Z,161.63
2019-02-09T21:26:18.531Z,159.43
2019-02-09T21:28:49.355Z,140.17
2019-02-09T21:31:19.633Z,143.87
2019-02-09T21:33:49.983Z,131.27
2019-02-09T21:36:20.600Z,136.83
2019-02-09T21:38:51.299Z,150.23
2019-02-09T21:41:21.585Z,139.53
2019-02-09T21:43:52.458Z,156.37
2019-02-09T21:46:22.779Z,150.10
2019-02-09T21:48:53.121Z,170.63
2019-02-09T21:51:23.847Z,148.87
2019-02-09T21:53:54.546Z,150.53
2019-02-09T21:56:24.924Z,153.20
2019-02-09T21:58:55.503Z,247.53
2019-02-09T22:01:25.776Z,192.27
2019-02-09T22:03:56.694Z,367.07
2019-02-09T22:06:27.256Z,270.40
2019-02-09T22:08:57.828Z,191.73
2019-02-09T22:11:28.395Z,121.20
2019-02-09T22:13:58.937Z,114.30
2019-02-09T22:16:29.222Z,146.53
2019-02-09T22:19:00.073Z,129.00
2019-02-09T22:21:30.857Z,119.70
2019-02-09T22:24:01.364Z,104.97
2019-02-09T22:26:32.125Z,119.10
2019-02-09T22:29:03.054Z,141.27
2019-02-09T22:31:33.332Z,127.20
2019-02-09T22:34:04.382Z,133.73
2019-02-09T22:36:37.236Z,118.37
2019-02-09T22:39:09.220Z,115.73
2019-02-09T22:41:39.601Z,119.37
2019-02-09T22:44:09.922Z,105.70
2019-02-09T22:46:40.356Z,104.20
2019-02-09T22:49:14.046Z,108.23
2019-02-09T22:51:44.359Z,99.50
2019-02-09T22:54:14.691Z,109.63
2019-02-09T22:56:45.272Z,147.83
2019-02-09T22:59:15.556Z,107.57
2019-02-09T23:01:51.083Z,110.47
2019-02-09T23:05:05.347Z,115.20
2019-02-09T23:07:36.079Z,112.10
2019-02-09T23:10:10.792Z,127.47
2019-02-09T23:12:48.345Z,111.40
2019-02-09T23:15:13.264Z,119.47
2019-02-09T23:17:43.794Z,104.10
2019-02-09T23:20:14.583Z,105.10
2019-02-09T23:22:45.255Z,100.20
2019-02-09T23:25:15.534Z,101.10
2019-02-09T23:27:45.967Z,107.33
2019-02-09T23:30:16.771Z,132.57
2019-02-09T23:32:47.120Z,126.70
2019-02-09T23:35:17.410Z,119.00
2019-02-09T23:37:47.980Z,104.63
2019-02-09T23:40:18.526Z,103.57
2019-02-09T23:42:50.324Z,92.83
2019-02-09T23:45:20.624Z,108.20
2019-02-09T23:47:51.373Z,105.50
2019-02-09T23:50:22.173Z,104.03
2019-02-09T23:52:52.520Z,112.57
2019-02-09T23:55:22.799Z,97.97
2019-02-09T23:57:53.495Z,120.90
